sensor_id;sensor_type;location;lat;lon;timestamp;P1;durP1;ratioP1;P2;durP2;ratioP2
4278;SDS011;2153;47.744;10.580;2022-08-18T00:02:28;23.70;;;7.70;;
4278;SDS011;2153;47.744;10.580;2022-08-18T00:04:55;18.40;;;7.63;;
4278;SDS011;2153;47.744;10.580;2022-08-18T00:07:24;17.57;;;6.77;;
4278;SDS011;2153;47.744;10.580;2022-08-18T00:09:53;18.87;;;7.37;;
4278;SDS011;2153;47.744;10.580;2022-08-18T00:12:23;17.73;;;6.67;;
4278;SDS011;2153;47.744;10.580;2022-08-18T00:14:52;21.03;;;7.03;;
4278;SDS011;2153;47.744;10.580;2022-08-18T00:17:20;16.83;;;5.93;;
4278;SDS011;2153;47.744;10.580;2022-08-18T00:19:49;21.13;;;7.70;;
4278;SDS011;2153;47.744;10.580;2022-08-18T00:22:16;17.93;;;7.00;;
4278;SDS011;2153;47.744;10.580;2022-08-18T00:24:46;20.03;;;7.10;;
4278;SDS011;2153;47.744;10.580;2022-08-18T00:27:16;19.77;;;7.67;;
4278;SDS011;2153;47.744;10.580;2022-08-18T00:29:45;20.10;;;6.77;;
4278;SDS011;2153;47.744;10.580;2022-08-18T00:32:12;20.70;;;7.50;;
4278;SDS011;2153;47.744;10.580;2022-08-18T00:34:39;18.33;;;6.87;;
4278;SDS011;2153;47.744;10.580;2022-08-18T00:37:07;21.67;;;7.73;;
4278;SDS011;2153;47.744;10.580;2022-08-18T00:39:34;18.10;;;7.80;;
4278;SDS011;2153;47.744;10.580;2022-08-18T00:42:10;20.83;;;8.30;;
4278;SDS011;2153;47.744;10.580;2022-08-18T00:44:38;20.00;;;8.43;;
4278;SDS011;2153;47.744;10.580;2022-08-18T00:47:04;20.30;;;7.33;;
4278;SDS011;2153;47.744;10.580;2022-08-18T00:49:31;22.80;;;8.30;;
4278;SDS011;2153;47.744;10.580;2022-08-18T00:51:58;21.23;;;8.03;;
4278;SDS011;2153;47.744;10.580;2022-08-18T00:54:27;22.50;;;8.27;;
4278;SDS011;2153;47.744;10.580;2022-08-18T00:56:57;19.70;;;8.77;;
4278;SDS011;2153;47.744;10.580;2022-08-18T00:59:27;20.20;;;9.10;;
4278;SDS011;2153;47.744;10.580;2022-08-18T01:01:59;21.60;;;8.97;;
4278;SDS011;2153;47.744;10.580;2022-08-18T01:04:29;21.83;;;8.43;;
4278;SDS011;2153;47.744;10.580;2022-08-18T01:07:00;23.70;;;8.43;;
4278;SDS011;2153;47.744;10.580;2022-08-18T01:09:33;19.40;;;8.30;;
4278;SDS011;2153;47.744;10.580;2022-08-18T01:12:00;17.73;;;8.03;;
4278;SDS011;2153;47.744;10.580;2022-08-18T01:14:27;21.40;;;8.50;;
4278;SDS011;2153;47.744;10.580;2022-08-18T01:16:54;22.07;;;8.50;;
4278;SDS011;2153;47.744;10.580;2022-08-18T01:19:38;23.33;;;8.27;;
4278;SDS011;2153;47.744;10.580;2022-08-18T01:22:24;20.00;;;8.00;;
4278;SDS011;2153;47.744;10.580;2022-08-18T01:24:56;20.20;;;8.47;;
4278;SDS011;2153;47.744;10.580;2022-08-18T01:27:42;21.10;;;8.50;;
4278;SDS011;2153;47.744;10.580;2022-08-18T01:30:10;22.00;;;8.70;;
4278;SDS011;2153;47.744;10.580;2022-08-18T01:32:40;20.03;;;8.50;;
4278;SDS011;2153;47.744;10.580;2022-08-18T01:35:09;21.43;;;7.93;;
4278;SDS011;2153;47.744;10.580;2022-08-18T01:37:38;19.90;;;8.60;;
4278;SDS011;2153;47.744;10.580;2022-08-18T01:40:07;22.57;;;8.60;;
4278;SDS011;2153;47.744;10.580;2022-08-18T01:42:36;26.77;;;8.77;;
4278;SDS011;2153;47.744;10.580;2022-08-18T01:45:04;21.93;;;9.17;;
4278;SDS011;2153;47.744;10.580;2022-08-18T01:47:33;24.30;;;10.10;;
4278;SDS011;2153;47.744;10.580;2022-08-18T01:50:01;20.67;;;8.90;;
4278;SDS011;2153;47.744;10.580;2022-08-18T01:52:29;24.93;;;9.80;;
4278;SDS011;2153;47.744;10.580;2022-08-18T01:54:57;20.73;;;9.57;;
4278;SDS011;2153;47.744;10.580;2022-08-18T01:57:25;21.50;;;9.17;;
4278;SDS011;2153;47.744;10.580;2022-08-18T01:59:53;22.70;;;10.00;;
4278;SDS011;2153;47.744;10.580;2022-08-18T02:02:21;21.87;;;9.90;;
4278;SDS011;2153;47.744;10.580;2022-08-18T02:04:50;22.67;;;9.60;;
4278;SDS011;2153;47.744;10.580;2022-08-18T02:07:18;26.90;;;8.53;;
4278;SDS011;2153;47.744;10.580;2022-08-18T02:09:45;21.50;;;9.57;;
4278;SDS011;2153;47.744;10.580;2022-08-18T02:12:12;22.20;;;9.63;;
4278;SDS011;2153;47.744;10.580;2022-08-18T02:14:41;22.73;;;10.50;;
4278;SDS011;2153;47.744;10.580;2022-08-18T02:17:09;20.07;;;9.60;;
4278;SDS011;2153;47.744;10.580;2022-08-18T02:19:38;23.37;;;10.40;;
4278;SDS011;2153;47.744;10.580;2022-08-18T02:22:06;20.33;;;9.23;;
4278;SDS011;2153;47.744;10.580;2022-08-18T02:24:34;22.07;;;9.47;;
4278;SDS011;2153;47.744;10.580;2022-08-18T02:27:01;21.43;;;9.57;;
4278;SDS011;2153;47.744;10.580;2022-08-18T02:29:28;21.90;;;9.13;;
4278;SDS011;2153;47.744;10.580;2022-08-18T02:31:56;21.40;;;9.40;;
4278;SDS011;2153;47.744;10.580;2022-08-18T02:34:23;22.00;;;9.70;;
4278;SDS011;2153;47.744;10.580;2022-08-18T02:36:50;24.27;;;10.50;;
4278;SDS011;2153;47.744;10.580;2022-08-18T02:39:17;26.90;;;9.43;;
4278;SDS011;2153;47.744;10.580;2022-08-18T02:41:44;22.73;;;10.70;;
4278;SDS011;2153;47.744;10.580;2022-08-18T02:44:11;21.93;;;9.80;;
4278;SDS011;2153;47.744;10.580;2022-08-18T02:46:38;22.50;;;9.93;;
4278;SDS011;2153;47.744;10.580;2022-08-18T02:49:06;20.20;;;9.37;;
4278;SDS011;2153;47.744;10.580;2022-08-18T02:51:33;19.87;;;8.27;;
4278;SDS011;2153;47.744;10.580;2022-08-18T02:54:00;19.17;;;7.90;;
4278;SDS011;2153;47.744;10.580;2022-08-18T02:56:28;23.43;;;9.13;;
4278;SDS011;2153;47.744;10.580;2022-08-18T02:58:57;21.23;;;9.30;;
4278;SDS011;2153;47.744;10.580;2022-08-18T03:01:26;20.67;;;9.47;;
4278;SDS011;2153;47.744;10.580;2022-08-18T03:03:56;21.07;;;9.40;;
4278;SDS011;2153;47.744;10.580;2022-08-18T03:06:25;20.97;;;9.10;;
4278;SDS011;2153;47.744;10.580;2022-08-18T03:08:53;24.40;;;9.37;;
4278;SDS011;2153;47.744;10.580;2022-08-18T03:11:23;22.30;;;9.70;;
4278;SDS011;2153;47.744;10.580;2022-08-18T03:13:51;20.50;;;8.87;;
4278;SDS011;2153;47.744;10.580;2022-08-18T03:16:19;20.80;;;9.47;;
4278;SDS011;2153;47.744;10.580;2022-08-18T03:18:48;26.93;;;9.73;;
4278;SDS011;2153;47.744;10.580;2022-08-18T03:21:16;22.10;;;9.07;;
4278;SDS011;2153;47.744;10.580;2022-08-18T03:23:47;21.27;;;9.73;;
4278;SDS011;2153;47.744;10.580;2022-08-18T03:26:16;24.17;;;10.57;;
4278;SDS011;2153;47.744;10.580;2022-08-18T03:28:47;23.53;;;9.67;;
4278;SDS011;2153;47.744;10.580;2022-08-18T03:31:16;26.93;;;10.30;;
4278;SDS011;2153;47.744;10.580;2022-08-18T03:33:44;20.00;;;9.17;;
4278;SDS011;2153;47.744;10.580;2022-08-18T03:36:13;19.57;;;8.57;;
4278;SDS011;2153;47.744;10.580;2022-08-18T03:38:42;20.00;;;9.20;;
4278;SDS011;2153;47.744;10.580;2022-08-18T03:41:12;21.17;;;9.40;;
4278;SDS011;2153;47.744;10.580;2022-08-18T03:43:40;20.83;;;9.53;;
4278;SDS011;2153;47.744;10.580;2022-08-18T03:46:08;29.17;;;9.90;;
4278;SDS011;2153;47.744;10.580;2022-08-18T03:48:37;21.20;;;9.47;;
4278;SDS011;2153;47.744;10.580;2022-08-18T03:51:06;21.40;;;9.87;;
4278;SDS011;2153;47.744;10.580;2022-08-18T03:53:34;28.80;;;9.23;;
4278;SDS011;2153;47.744;10.580;2022-08-18T03:56:05;24.60;;;10.67;;
4278;SDS011;2153;47.744;10.580;2022-08-18T03:58:34;23.93;;;8.67;;
4278;SDS011;2153;47.744;10.580;2022-08-18T04:01:01;21.37;;;9.17;;
4278;SDS011;2153;47.744;10.580;2022-08-18T04:03:28;27.00;;;11.23;;
4278;SDS011;2153;47.744;10.580;2022-08-18T04:05:55;26.27;;;11.00;;
4278;SDS011;2153;47.744;10.580;2022-08-18T04:08:22;25.60;;;9.70;;
4278;SDS011;2153;47.744;10.580;2022-08-18T04:10:48;23.17;;;11.20;;
4278;SDS011;2153;47.744;10.580;2022-08-18T04:13:15;22.60;;;10.60;;
4278;SDS011;2153;47.744;10.580;2022-08-18T04:15:43;23.33;;;11.13;;
4278;SDS011;2153;47.744;10.580;2022-08-18T04:18:10;23.10;;;10.00;;
4278;SDS011;2153;47.744;10.580;2022-08-18T04:20:37;23.10;;;9.87;;
4278;SDS011;2153;47.744;10.580;2022-08-18T04:23:04;28.73;;;11.33;;
4278;SDS011;2153;47.744;10.580;2022-08-18T04:25:31;26.70;;;10.43;;
4278;SDS011;2153;47.744;10.580;2022-08-18T04:28:01;22.73;;;10.23;;
4278;SDS011;2153;47.744;10.580;2022-08-18T04:30:27;20.90;;;8.83;;
4278;SDS011;2153;47.744;10.580;2022-08-18T04:32:55;20.83;;;9.17;;
4278;SDS011;2153;47.744;10.580;2022-08-18T04:35:22;22.90;;;10.23;;
4278;SDS011;2153;47.744;10.580;2022-08-18T04:37:49;19.67;;;9.50;;
4278;SDS011;2153;47.744;10.580;2022-08-18T04:40:16;21.93;;;10.67;;
4278;SDS011;2153;47.744;10.580;2022-08-18T04:42:43;20.90;;;10.47;;
4278;SDS011;2153;47.744;10.580;2022-08-18T04:45:10;22.67;;;9.80;;
4278;SDS011;2153;47.744;10.580;2022-08-18T04:47:38;27.13;;;10.47;;
4278;SDS011;2153;47.744;10.580;2022-08-18T04:50:07;25.53;;;11.10;;
4278;SDS011;2153;47.744;10.580;2022-08-18T04:52:35;23.97;;;12.13;;
4278;SDS011;2153;47.744;10.580;2022-08-18T04:55:19;22.17;;;12.37;;
4278;SDS011;2153;47.744;10.580;2022-08-18T04:57:46;24.37;;;11.40;;
4278;SDS011;2153;47.744;10.580;2022-08-18T05:00:13;21.43;;;10.70;;
4278;SDS011;2153;47.744;10.580;2022-08-18T05:02:40;26.90;;;11.27;;
4278;SDS011;2153;47.744;10.580;2022-08-18T05:05:08;24.37;;;11.53;;
4278;SDS011;2153;47.744;10.580;2022-08-18T05:07:35;22.70;;;10.40;;
4278;SDS011;2153;47.744;10.580;2022-08-18T05:10:02;27.03;;;12.10;;
4278;SDS011;2153;47.744;10.580;2022-08-18T05:12:29;28.53;;;10.63;;
4278;SDS011;2153;47.744;10.580;2022-08-18T05:14:56;23.67;;;10.70;;
4278;SDS011;2153;47.744;10.580;2022-08-18T05:17:22;25.77;;;12.00;;
4278;SDS011;2153;47.744;10.580;2022-08-18T05:19:52;24.00;;;12.57;;
4278;SDS011;2153;47.744;10.580;2022-08-18T05:22:20;38.87;;;12.60;;
4278;SDS011;2153;47.744;10.580;2022-08-18T05:24:47;25.43;;;11.67;;
4278;SDS011;2153;47.744;10.580;2022-08-18T05:27:13;24.57;;;12.70;;
4278;SDS011;2153;47.744;10.580;2022-08-18T05:29:40;30.03;;;13.13;;
4278;SDS011;2153;47.744;10.580;2022-08-18T05:32:07;29.33;;;12.47;;
4278;SDS011;2153;47.744;10.580;2022-08-18T05:34:34;25.50;;;12.57;;
4278;SDS011;2153;47.744;10.580;2022-08-18T05:37:07;23.17;;;11.10;;
4278;SDS011;2153;47.744;10.580;2022-08-18T05:39:49;28.77;;;12.00;;
4278;SDS011;2153;47.744;10.580;2022-08-18T05:42:21;27.37;;;12.13;;
4278;SDS011;2153;47.744;10.580;2022-08-18T05:44:50;25.50;;;11.73;;
4278;SDS011;2153;47.744;10.580;2022-08-18T05:47:19;24.30;;;11.93;;
4278;SDS011;2153;47.744;10.580;2022-08-18T05:49:49;23.77;;;11.13;;
4278;SDS011;2153;47.744;10.580;2022-08-18T05:52:18;24.37;;;11.13;;
4278;SDS011;2153;47.744;10.580;2022-08-18T05:54:53;22.60;;;10.80;;
4278;SDS011;2153;47.744;10.580;2022-08-18T05:57:41;27.00;;;10.80;;
4278;SDS011;2153;47.744;10.580;2022-08-18T06:00:15;25.80;;;12.07;;
4278;SDS011;2153;47.744;10.580;2022-08-18T06:02:43;24.57;;;11.57;;
4278;SDS011;2153;47.744;10.580;2022-08-18T06:05:24;26.50;;;9.97;;
4278;SDS011;2153;47.744;10.580;2022-08-18T06:07:56;19.80;;;9.60;;
4278;SDS011;2153;47.744;10.580;2022-08-18T06:10:26;23.60;;;10.30;;
4278;SDS011;2153;47.744;10.580;2022-08-18T06:12:53;20.90;;;9.80;;
4278;SDS011;2153;47.744;10.580;2022-08-18T06:15:25;21.77;;;9.50;;
4278;SDS011;2153;47.744;10.580;2022-08-18T06:18:09;22.00;;;10.30;;
4278;SDS011;2153;47.744;10.580;2022-08-18T06:20:53;21.37;;;10.30;;
4278;SDS011;2153;47.744;10.580;2022-08-18T06:23:33;23.10;;;10.10;;
4278;SDS011;2153;47.744;10.580;2022-08-18T06:26:08;21.90;;;10.00;;
4278;SDS011;2153;47.744;10.580;2022-08-18T06:28:45;22.60;;;10.17;;
4278;SDS011;2153;47.744;10.580;2022-08-18T06:31:20;22.07;;;9.10;;
4278;SDS011;2153;47.744;10.580;2022-08-18T06:33:55;20.03;;;9.77;;
4278;SDS011;2153;47.744;10.580;2022-08-18T06:36:34;21.93;;;8.97;;
4278;SDS011;2153;47.744;10.580;2022-08-18T06:39:11;21.33;;;8.67;;
4278;SDS011;2153;47.744;10.580;2022-08-18T06:41:45;18.87;;;8.33;;
4278;SDS011;2153;47.744;10.580;2022-08-18T06:44:16;21.00;;;9.03;;
4278;SDS011;2153;47.744;10.580;2022-08-18T06:46:49;21.60;;;9.90;;
4278;SDS011;2153;47.744;10.580;2022-08-18T06:49:25;20.30;;;10.00;;
4278;SDS011;2153;47.744;10.580;2022-08-18T06:51:58;23.07;;;10.00;;
4278;SDS011;2153;47.744;10.580;2022-08-18T06:54:42;23.77;;;10.77;;
4278;SDS011;2153;47.744;10.580;2022-08-18T06:57:18;23.17;;;10.27;;
4278;SDS011;2153;47.744;10.580;2022-08-18T06:59:53;27.50;;;10.17;;
4278;SDS011;2153;47.744;10.580;2022-08-18T07:02:21;20.30;;;9.80;;
4278;SDS011;2153;47.744;10.580;2022-08-18T07:04:59;22.13;;;9.50;;
4278;SDS011;2153;47.744;10.580;2022-08-18T07:07:29;21.57;;;9.80;;
4278;SDS011;2153;47.744;10.580;2022-08-18T07:09:57;19.93;;;9.27;;
4278;SDS011;2153;47.744;10.580;2022-08-18T07:12:26;20.27;;;9.30;;
4278;SDS011;2153;47.744;10.580;2022-08-18T07:14:55;25.90;;;9.20;;
4278;SDS011;2153;47.744;10.580;2022-08-18T07:17:24;22.30;;;9.07;;
4278;SDS011;2153;47.744;10.580;2022-08-18T07:19:53;19.17;;;8.20;;
4278;SDS011;2153;47.744;10.580;2022-08-18T07:22:25;20.37;;;9.30;;
4278;SDS011;2153;47.744;10.580;2022-08-18T07:24:52;18.43;;;8.00;;
4278;SDS011;2153;47.744;10.580;2022-08-18T07:27:20;22.00;;;8.63;;
4278;SDS011;2153;47.744;10.580;2022-08-18T07:29:59;23.13;;;9.87;;
4278;SDS011;2153;47.744;10.580;2022-08-18T07:32:31;24.30;;;9.40;;
4278;SDS011;2153;47.744;10.580;2022-08-18T07:35:05;20.70;;;8.93;;
4278;SDS011;2153;47.744;10.580;2022-08-18T07:37:35;23.27;;;8.93;;
4278;SDS011;2153;47.744;10.580;2022-08-18T07:40:11;21.97;;;9.00;;
4278;SDS011;2153;47.744;10.580;2022-08-18T07:42:50;20.87;;;9.13;;
4278;SDS011;2153;47.744;10.580;2022-08-18T07:45:24;20.27;;;9.30;;
4278;SDS011;2153;47.744;10.580;2022-08-18T07:47:56;19.57;;;8.97;;
4278;SDS011;2153;47.744;10.580;2022-08-18T07:50:28;19.10;;;9.03;;
4278;SDS011;2153;47.744;10.580;2022-08-18T07:53:04;18.47;;;8.83;;
4278;SDS011;2153;47.744;10.580;2022-08-18T07:55:37;23.57;;;9.43;;
4278;SDS011;2153;47.744;10.580;2022-08-18T07:58:14;20.47;;;9.50;;
4278;SDS011;2153;47.744;10.580;2022-08-18T08:00:53;23.33;;;9.83;;
4278;SDS011;2153;47.744;10.580;2022-08-18T08:03:28;25.27;;;10.80;;
4278;SDS011;2153;47.744;10.580;2022-08-18T08:06:01;20.03;;;9.57;;
4278;SDS011;2153;47.744;10.580;2022-08-18T08:08:36;23.20;;;9.83;;
4278;SDS011;2153;47.744;10.580;2022-08-18T08:11:11;21.37;;;9.60;;
4278;SDS011;2153;47.744;10.580;2022-08-18T08:13:51;21.53;;;10.10;;
4278;SDS011;2153;47.744;10.580;2022-08-18T08:16:36;22.00;;;11.47;;
4278;SDS011;2153;47.744;10.580;2022-08-18T08:19:17;21.10;;;10.67;;
4278;SDS011;2153;47.744;10.580;2022-08-18T08:22:02;20.63;;;9.90;;
4278;SDS011;2153;47.744;10.580;2022-08-18T08:24:33;19.23;;;9.50;;
4278;SDS011;2153;47.744;10.580;2022-08-18T08:27:08;20.73;;;9.83;;
4278;SDS011;2153;47.744;10.580;2022-08-18T08:29:43;19.00;;;8.47;;
4278;SDS011;2153;47.744;10.580;2022-08-18T08:32:22;19.57;;;7.70;;
4278;SDS011;2153;47.744;10.580;2022-08-18T08:34:57;19.47;;;8.23;;
4278;SDS011;2153;47.744;10.580;2022-08-18T08:37:32;17.30;;;7.53;;
4278;SDS011;2153;47.744;10.580;2022-08-18T08:40:06;18.03;;;7.43;;
4278;SDS011;2153;47.744;10.580;2022-08-18T08:42:39;18.10;;;6.90;;
4278;SDS011;2153;47.744;10.580;2022-08-18T08:45:11;19.87;;;8.27;;
4278;SDS011;2153;47.744;10.580;2022-08-18T08:47:43;17.30;;;7.27;;
4278;SDS011;2153;47.744;10.580;2022-08-18T08:50:18;16.93;;;6.80;;
4278;SDS011;2153;47.744;10.580;2022-08-18T08:52:51;14.80;;;5.33;;
4278;SDS011;2153;47.744;10.580;2022-08-18T08:55:21;15.40;;;5.73;;
4278;SDS011;2153;47.744;10.580;2022-08-18T08:57:50;18.43;;;5.90;;
4278;SDS011;2153;47.744;10.580;2022-08-18T09:00:26;14.80;;;5.10;;
4278;SDS011;2153;47.744;10.580;2022-08-18T09:02:59;18.10;;;6.50;;
4278;SDS011;2153;47.744;10.580;2022-08-18T09:05:35;15.77;;;5.60;;
4278;SDS011;2153;47.744;10.580;2022-08-18T09:08:12;15.83;;;5.73;;
4278;SDS011;2153;47.744;10.580;2022-08-18T09:11:11;18.00;;;6.13;;
4278;SDS011;2153;47.744;10.580;2022-08-18T09:14:05;16.90;;;5.20;;
4278;SDS011;2153;47.744;10.580;2022-08-18T09:16:57;16.33;;;5.00;;
4278;SDS011;2153;47.744;10.580;2022-08-18T09:19:55;16.23;;;5.40;;
4278;SDS011;2153;47.744;10.580;2022-08-18T09:22:35;27.83;;;6.37;;
4278;SDS011;2153;47.744;10.580;2022-08-18T09:25:11;15.97;;;5.60;;
4278;SDS011;2153;47.744;10.580;2022-08-18T09:28:05;16.40;;;5.50;;
4278;SDS011;2153;47.744;10.580;2022-08-18T09:30:36;18.73;;;5.87;;
4278;SDS011;2153;47.744;10.580;2022-08-18T09:33:13;16.60;;;6.10;;
4278;SDS011;2153;47.744;10.580;2022-08-18T09:35:56;16.60;;;5.73;;
4278;SDS011;2153;47.744;10.580;2022-08-18T09:38:31;18.93;;;6.20;;
4278;SDS011;2153;47.744;10.580;2022-08-18T09:41:20;17.60;;;5.87;;
4278;SDS011;2153;47.744;10.580;2022-08-18T09:43:59;18.93;;;5.77;;
4278;SDS011;2153;47.744;10.580;2022-08-18T09:46:56;16.50;;;5.70;;
4278;SDS011;2153;47.744;10.580;2022-08-18T10:01:20;16.40;;;6.40;;
4278;SDS011;2153;47.744;10.580;2022-08-18T10:06:44;18.60;;;7.40;;
4278;SDS011;2153;47.744;10.580;2022-08-18T10:09:19;22.53;;;6.77;;
4278;SDS011;2153;47.744;10.580;2022-08-18T10:11:59;19.00;;;6.50;;
4278;SDS011;2153;47.744;10.580;2022-08-18T10:14:56;17.40;;;7.23;;
4278;SDS011;2153;47.744;10.580;2022-08-18T10:17:42;16.93;;;6.60;;
4278;SDS011;2153;47.744;10.580;2022-08-18T10:20:21;17.70;;;6.87;;
4278;SDS011;2153;47.744;10.580;2022-08-18T10:22:55;16.80;;;6.50;;
4278;SDS011;2153;47.744;10.580;2022-08-18T10:25:36;16.27;;;6.63;;
4278;SDS011;2153;47.744;10.580;2022-08-18T10:28:06;17.20;;;6.57;;
4278;SDS011;2153;47.744;10.580;2022-08-18T10:30:45;16.73;;;6.73;;
4278;SDS011;2153;47.744;10.580;2022-08-18T10:39:11;16.87;;;6.40;;
4278;SDS011;2153;47.744;10.580;2022-08-18T10:41:49;17.00;;;7.30;;
4278;SDS011;2153;47.744;10.580;2022-08-18T10:44:23;18.90;;;8.07;;
4278;SDS011;2153;47.744;10.580;2022-08-18T10:46:52;17.80;;;7.60;;
4278;SDS011;2153;47.744;10.580;2022-08-18T10:49:20;20.67;;;8.23;;
4278;SDS011;2153;47.744;10.580;2022-08-18T10:51:53;16.90;;;7.50;;
4278;SDS011;2153;47.744;10.580;2022-08-18T10:54:31;29.73;;;9.20;;
4278;SDS011;2153;47.744;10.580;2022-08-18T10:57:06;25.80;;;8.70;;
4278;SDS011;2153;47.744;10.580;2022-08-18T10:59:38;20.17;;;8.57;;
4278;SDS011;2153;47.744;10.580;2022-08-18T11:02:18;19.50;;;9.87;;
4278;SDS011;2153;47.744;10.580;2022-08-18T11:05:03;22.60;;;8.33;;
4278;SDS011;2153;47.744;10.580;2022-08-18T11:07:32;21.83;;;8.10;;
4278;SDS011;2153;47.744;10.580;2022-08-18T11:10:13;18.07;;;6.50;;
4278;SDS011;2153;47.744;10.580;2022-08-18T11:15:32;18.40;;;8.10;;
4278;SDS011;2153;47.744;10.580;2022-08-18T11:18:14;20.97;;;7.80;;
4278;SDS011;2153;47.744;10.580;2022-08-18T11:20:53;18.20;;;7.80;;
4278;SDS011;2153;47.744;10.580;2022-08-18T11:23:19;19.00;;;8.50;;
4278;SDS011;2153;47.744;10.580;2022-08-18T11:25:46;23.20;;;8.57;;
4278;SDS011;2153;47.744;10.580;2022-08-18T11:28:14;21.33;;;9.10;;
4278;SDS011;2153;47.744;10.580;2022-08-18T11:30:44;19.23;;;8.47;;
4278;SDS011;2153;47.744;10.580;2022-08-18T11:33:14;18.77;;;8.67;;
4278;SDS011;2153;47.744;10.580;2022-08-18T11:35:46;19.60;;;8.43;;
4278;SDS011;2153;47.744;10.580;2022-08-18T11:38:15;21.73;;;7.90;;
4278;SDS011;2153;47.744;10.580;2022-08-18T11:40:44;18.83;;;7.80;;
4278;SDS011;2153;47.744;10.580;2022-08-18T11:43:16;16.33;;;6.47;;
4278;SDS011;2153;47.744;10.580;2022-08-18T11:45:50;18.13;;;8.47;;
4278;SDS011;2153;47.744;10.580;2022-08-18T11:48:21;17.60;;;7.43;;
4278;SDS011;2153;47.744;10.580;2022-08-18T11:50:58;21.87;;;6.67;;
4278;SDS011;2153;47.744;10.580;2022-08-18T11:53:35;19.27;;;8.70;;
4278;SDS011;2153;47.744;10.580;2022-08-18T11:56:13;17.50;;;7.00;;
4278;SDS011;2153;47.744;10.580;2022-08-18T11:58:43;17.40;;;7.70;;
4278;SDS011;2153;47.744;10.580;2022-08-18T12:01:15;19.07;;;6.73;;
4278;SDS011;2153;47.744;10.580;2022-08-18T12:03:56;20.20;;;8.20;;
4278;SDS011;2153;47.744;10.580;2022-08-18T12:06:25;20.37;;;8.37;;
4278;SDS011;2153;47.744;10.580;2022-08-18T12:08:56;20.60;;;7.03;;
4278;SDS011;2153;47.744;10.580;2022-08-18T12:11:27;23.17;;;8.87;;
4278;SDS011;2153;47.744;10.580;2022-08-18T12:14:00;21.27;;;8.27;;
4278;SDS011;2153;47.744;10.580;2022-08-18T12:16:32;19.10;;;7.70;;
4278;SDS011;2153;47.744;10.580;2022-08-18T12:19:01;18.47;;;7.23;;
4278;SDS011;2153;47.744;10.580;2022-08-18T12:21:29;24.53;;;8.97;;
4278;SDS011;2153;47.744;10.580;2022-08-18T12:23:56;23.33;;;9.20;;
4278;SDS011;2153;47.744;10.580;2022-08-18T12:26:23;22.03;;;8.30;;
4278;SDS011;2153;47.744;10.580;2022-08-18T12:28:49;17.67;;;7.50;;
4278;SDS011;2153;47.744;10.580;2022-08-18T12:31:16;19.50;;;8.80;;
4278;SDS011;2153;47.744;10.580;2022-08-18T12:33:44;18.80;;;7.67;;
4278;SDS011;2153;47.744;10.580;2022-08-18T12:36:11;18.13;;;8.10;;
4278;SDS011;2153;47.744;10.580;2022-08-18T12:38:38;21.60;;;8.83;;
4278;SDS011;2153;47.744;10.580;2022-08-18T12:41:08;20.90;;;8.47;;
4278;SDS011;2153;47.744;10.580;2022-08-18T12:43:36;19.30;;;8.87;;
4278;SDS011;2153;47.744;10.580;2022-08-18T12:46:03;18.83;;;7.73;;
4278;SDS011;2153;47.744;10.580;2022-08-18T12:48:30;18.00;;;8.37;;
4278;SDS011;2153;47.744;10.580;2022-08-18T12:50:58;24.43;;;9.30;;
4278;SDS011;2153;47.744;10.580;2022-08-18T12:53:25;19.97;;;8.30;;
4278;SDS011;2153;47.744;10.580;2022-08-18T12:55:54;21.03;;;9.10;;
4278;SDS011;2153;47.744;10.580;2022-08-18T12:58:20;20.53;;;8.90;;
4278;SDS011;2153;47.744;10.580;2022-08-18T13:00:47;20.63;;;8.60;;
4278;SDS011;2153;47.744;10.580;2022-08-18T13:03:14;19.00;;;8.00;;
4278;SDS011;2153;47.744;10.580;2022-08-18T13:05:41;22.27;;;7.70;;
4278;SDS011;2153;47.744;10.580;2022-08-18T13:08:12;16.80;;;7.07;;
4278;SDS011;2153;47.744;10.580;2022-08-18T13:10:41;18.50;;;6.87;;
4278;SDS011;2153;47.744;10.580;2022-08-18T13:13:08;17.73;;;7.50;;
4278;SDS011;2153;47.744;10.580;2022-08-18T13:15:35;17.30;;;6.70;;
4278;SDS011;2153;47.744;10.580;2022-08-18T13:18:02;18.77;;;7.60;;
4278;SDS011;2153;47.744;10.580;2022-08-18T13:20:29;18.63;;;7.93;;
4278;SDS011;2153;47.744;10.580;2022-08-18T13:22:56;20.23;;;8.23;;
4278;SDS011;2153;47.744;10.580;2022-08-18T13:25:24;18.70;;;8.37;;
4278;SDS011;2153;47.744;10.580;2022-08-18T13:27:51;23.00;;;8.90;;
4278;SDS011;2153;47.744;10.580;2022-08-18T13:30:20;19.27;;;9.00;;
4278;SDS011;2153;47.744;10.580;2022-08-18T13:32:47;22.10;;;10.17;;
4278;SDS011;2153;47.744;10.580;2022-08-18T13:35:15;17.67;;;8.03;;
4278;SDS011;2153;47.744;10.580;2022-08-18T13:37:42;20.93;;;9.07;;
4278;SDS011;2153;47.744;10.580;2022-08-18T13:40:10;21.97;;;8.47;;
4278;SDS011;2153;47.744;10.580;2022-08-18T13:42:46;21.60;;;8.47;;
4278;SDS011;2153;47.744;10.580;2022-08-18T13:45:14;21.40;;;9.30;;
4278;SDS011;2153;47.744;10.580;2022-08-18T13:47:43;25.40;;;9.87;;
4278;SDS011;2153;47.744;10.580;2022-08-18T13:50:11;20.87;;;8.70;;
4278;SDS011;2153;47.744;10.580;2022-08-18T13:52:38;21.13;;;9.20;;
4278;SDS011;2153;47.744;10.580;2022-08-18T13:55:07;20.80;;;9.73;;
4278;SDS011;2153;47.744;10.580;2022-08-18T13:57:36;20.37;;;8.93;;
4278;SDS011;2153;47.744;10.580;2022-08-18T14:00:07;18.13;;;8.30;;
4278;SDS011;2153;47.744;10.580;2022-08-18T14:02:38;21.73;;;10.10;;
4278;SDS011;2153;47.744;10.580;2022-08-18T14:05:05;23.60;;;11.33;;
4278;SDS011;2153;47.744;10.580;2022-08-18T14:07:33;21.23;;;10.20;;
4278;SDS011;2153;47.744;10.580;2022-08-18T14:10:00;19.20;;;9.20;;
4278;SDS011;2153;47.744;10.580;2022-08-18T14:12:27;21.40;;;9.63;;
4278;SDS011;2153;47.744;10.580;2022-08-18T14:14:53;22.80;;;9.63;;
4278;SDS011;2153;47.744;10.580;2022-08-18T14:17:22;21.70;;;10.57;;
4278;SDS011;2153;47.744;10.580;2022-08-18T14:19:50;19.37;;;9.67;;
4278;SDS011;2153;47.744;10.580;2022-08-18T14:22:34;24.73;;;9.50;;
4278;SDS011;2153;47.744;10.580;2022-08-18T14:25:18;29.03;;;11.70;;
4278;SDS011;2153;47.744;10.580;2022-08-18T14:28:16;18.87;;;9.30;;
4278;SDS011;2153;47.744;10.580;2022-08-18T14:30:43;21.40;;;10.50;;
4278;SDS011;2153;47.744;10.580;2022-08-18T14:33:12;23.80;;;10.67;;
4278;SDS011;2153;47.744;10.580;2022-08-18T14:35:44;34.40;;;11.23;;
4278;SDS011;2153;47.744;10.580;2022-08-18T14:38:12;25.40;;;11.40;;
4278;SDS011;2153;47.744;10.580;2022-08-18T14:40:39;23.23;;;11.70;;
4278;SDS011;2153;47.744;10.580;2022-08-18T14:43:07;25.43;;;12.10;;
4278;SDS011;2153;47.744;10.580;2022-08-18T14:45:34;28.00;;;14.23;;
4278;SDS011;2153;47.744;10.580;2022-08-18T14:48:00;28.67;;;13.43;;
4278;SDS011;2153;47.744;10.580;2022-08-18T14:50:29;23.23;;;12.33;;
4278;SDS011;2153;47.744;10.580;2022-08-18T14:52:55;24.90;;;13.00;;
4278;SDS011;2153;47.744;10.580;2022-08-18T14:55:22;29.80;;;14.50;;
4278;SDS011;2153;47.744;10.580;2022-08-18T14:57:49;26.50;;;14.10;;
4278;SDS011;2153;47.744;10.580;2022-08-18T15:00:17;27.70;;;14.20;;
4278;SDS011;2153;47.744;10.580;2022-08-18T15:02:45;26.47;;;14.60;;
4278;SDS011;2153;47.744;10.580;2022-08-18T15:05:14;23.87;;;14.00;;
4278;SDS011;2153;47.744;10.580;2022-08-18T15:07:43;28.80;;;14.60;;
4278;SDS011;2153;47.744;10.580;2022-08-18T15:10:12;24.77;;;14.63;;
4278;SDS011;2153;47.744;10.580;2022-08-18T15:12:39;24.60;;;14.73;;
4278;SDS011;2153;47.744;10.580;2022-08-18T15:15:08;26.73;;;13.90;;
4278;SDS011;2153;47.744;10.580;2022-08-18T15:17:37;28.23;;;15.30;;
4278;SDS011;2153;47.744;10.580;2022-08-18T15:20:05;26.97;;;13.37;;
4278;SDS011;2153;47.744;10.580;2022-08-18T15:22:36;30.53;;;14.37;;
4278;SDS011;2153;47.744;10.580;2022-08-18T15:25:23;32.17;;;16.63;;
4278;SDS011;2153;47.744;10.580;2022-08-18T15:28:06;38.90;;;17.27;;
4278;SDS011;2153;47.744;10.580;2022-08-18T15:30:34;40.93;;;18.00;;
4278;SDS011;2153;47.744;10.580;2022-08-18T15:33:02;39.47;;;17.90;;